MMZH 090240Z 00000KT 6SM FEW090 27/22 A2993 RMK SLP127 52017 911 8/030 HZY CI= 090240

MMZH 090141Z 00000KT 6SM FEW090 SCT250 28/22 A2992 RMK 8/032 HZY= 090141

MMZH 090044Z 00000KT 6SM FEW090 SCT250 29/23 A2990 RMK 8/032 HZY= 090044

MMZH 082340Z 00000KT 6SM SKC 30/23 A2988 RMK SLP110 54000 907 HZY AC= 082340

MMZH 082240Z 00000KT 6SM FEW020 31/23 A2987 RMK 8/100 HZY= 082241

MMZH 082146Z 21005KT 6SM FEW020 32/24 A2987 RMK 8/100 HZY= 082146

MMZH 082040Z 24006KT 6SM SKC 32/24 A2988 RMK SLP110 57027 907 HZY CU= 082041

MMZH 081940Z 24006KT 6SM SKC 32/24 A2989 RMK HZY CU= 081941

MMZH 081840Z 20005KT 6SM SKC 32/23 A2993 RMK HZY CU= 081840

MMZH 081740Z 20007KT 6SM SKC 31/23 A2996 RMK SLP137 57006 910 HZY CU= 081744

MMZH 081640Z 00000KT 6SM SKC 31/23 A2999 RMK HZY ISOL CU= 081640

MMZH 081542Z 00000KT 6SM SKC 29/23 A2999 RMK HZY AC= 081542

MMZH 081440Z 00000KT 6SM FEW090 26/22 A2998 RMK SLP143 5//// 916 8/030 HZY ISOL CI= 081441

MMZH 081343Z 00000KT 6SM FEW090 24/21 A2996 RMK 8/030 HZY ISOL SC= 081343

MMZH 081258Z RTD 00000KT 6SM SKC 23/20 A2995 RMK HZY ISOL SC RTS= 081259

MMZH 080241Z 00000KT 7SM SKC 26/22 A2990 RMK SLP116 52013 967 HZY= 080241

MMZH 080143Z 00000KT 7SM SKC 28/22 A2988 RMK HZY= 080143

MMZH 080040Z 00000KT 7SM SKC 28/22 A2987 RMK HZY= 080042

MMZH 072356Z 00000KT 7SM SKC 29/23 A2986 RMK SLP103 54000 967 HZY= 072357

MMZH 072240Z 00000KT 7SM SKC 30/25 A2984 RMK HZY= 072242

MMZH 072140Z 20007KT 7SM SKC 30/23 A2985 RMK HZY= 072142

MMZH 072042Z 22008KT 7SM SKC 31/23 A2986 RMK SLP103 57024 970 HZY= 072043

MMZH 071940Z 22008KT 7SM SKC 32/24 A2987 RMK HZY= 071941

MMZH 071840Z 23009KT 7SM SKC 32/24 A2991 RMK HZY= 071843

MMZH 071740Z 23007KT 7SM SKC 32/22 A2993 RMK SLP127 54000 970 HZY= 071742

MMZH 071640Z 00000KT 7SM SKC 31/23 A2995 RMK HZY= 071643

MMZH 071541Z 00000KT 7SM SKC 29/22 A2995 RMK HZY= 071541

MMZH 071441Z 00000KT 7SM SKC 26/22 A2993 RMK SLP127 5//// 977 HZY= 071441

MMZH 071340Z 00000KT 7SM SKC 23/20 A2992 RMK HZY= 071344

MMZH 071249Z 00000KT 7SM SKC 22/19 A2995 RMK HZY RTS= 071250

MMZH 070240Z 00000KT 6SM FEW250 27/22 A2995 RMK SLP133 52013 910 8/002 HZY= 070240

MMZH 070140Z 00000KT 6SM FEW250 28/22 A2995 RMK 8/002 HZY= 070141

MMZH 070043Z 00000KT 6SM FEW250 29/23 A2993 RMK 8/002 HZY AC= 070043

MMZH 062340Z 00000KT 6SM FEW250 30/23 A2991 RMK SLP120 57003 910 8/002 HZY AC= 062340

MMZH 062240Z 00000KT 6SM SKC 31/23 A2988 RMK HZY CU= 062240

MMZH 062147Z 23005KT 6SM SKC 32/24 A2990 RMK HZY CU= 062147

MMZH 062040Z 22006KT 6SM SKC 32/24 A2992 RMK SLP123 57024 910 HZY CU= 062041

MMZH 061940Z 22006KT 6SM SKC 32/24 A2994 RMK HZY ISOL CU= 061940

MMZH 061840Z 22007KT 6SM SKC 32/24 A2996 RMK HZY ISOL CU= 061840

MMZH 061743Z 22005KT 6SM SKC 32/24 A2999 RMK SLP147 57007 907 HZY ISOL CU= 061744

MMZH 061640Z 00000KT 6SM SKC 30/23 A3000 RMK HZY= 061640

MMZH 061548Z 00000KT 6SM SKC 28/22 A3002 RMK HZY= 061548

MMZH 061440Z 00000KT 6SM SKC 26/22 A3001 RMK SLP154 5//// 917 HZY SC= 061440

MMZH 061342Z 00000KT 6SM FEW020 24/21 A2999 RMK 8/500 HZY CI= 061342

MMZH 061258Z RTD 00000KT 6SM SCT020 22/20 A2998 RMK 8/500 HZY CI RTS= 061300

MMZH 060240Z 00000KT 7SM SKC 25/20 A2992 RMK SLP123 52013 9// HZY= 060246